sensor_id;sensor_type;location;lat;lon;timestamp;temperature;humidity
6536;DHT22;34330;52.08032700;5.40923460;2023-09-19T00:02:17;18.70;92.20
6536;DHT22;34330;52.08032700;5.40923460;2023-09-19T00:04:45;18.60;92.20
6536;DHT22;34330;52.08032700;5.40923460;2023-09-19T00:07:13;18.60;92.60
6536;DHT22;34330;52.08032700;5.40923460;2023-09-19T00:09:43;18.60;92.40
6536;DHT22;34330;52.08032700;5.40923460;2023-09-19T00:12:11;18.60;92.40
6536;DHT22;34330;52.08032700;5.40923460;2023-09-19T00:14:40;18.50;92.40
6536;DHT22;34330;52.08032700;5.40923460;2023-09-19T00:17:08;18.50;92.40
6536;DHT22;34330;52.08032700;5.40923460;2023-09-19T00:19:37;18.50;92.40
6536;DHT22;34330;52.08032700;5.40923460;2023-09-19T00:22:05;18.50;92.50
6536;DHT22;34330;52.08032700;5.40923460;2023-09-19T00:24:34;18.40;92.40
6536;DHT22;34330;52.08032700;5.40923460;2023-09-19T00:27:02;18.50;92.50
6536;DHT22;34330;52.08032700;5.40923460;2023-09-19T00:29:32;18.40;92.50
6536;DHT22;34330;52.08032700;5.40923460;2023-09-19T00:32:00;18.40;92.70
6536;DHT22;34330;52.08032700;5.40923460;2023-09-19T00:34:31;18.40;92.70
6536;DHT22;34330;52.08032700;5.40923460;2023-09-19T00:37:02;18.30;92.70
6536;DHT22;34330;52.08032700;5.40923460;2023-09-19T00:39:31;18.30;92.70
6536;DHT22;34330;52.08032700;5.40923460;2023-09-19T00:41:59;18.30;92.80
6536;DHT22;34330;52.08032700;5.40923460;2023-09-19T00:44:31;18.60;92.90
6536;DHT22;34330;52.08032700;5.40923460;2023-09-19T00:47:01;18.50;93.00
6536;DHT22;34330;52.08032700;5.40923460;2023-09-19T00:49:30;18.30;92.90
6536;DHT22;34330;52.08032700;5.40923460;2023-09-19T00:51:59;18.30;93.00
6536;DHT22;34330;52.08032700;5.40923460;2023-09-19T00:54:29;18.30;93.00
6536;DHT22;34330;52.08032700;5.40923460;2023-09-19T00:56:57;18.30;93.10
6536;DHT22;34330;52.08032700;5.40923460;2023-09-19T00:59:25;18.30;93.10
6536;DHT22;34330;52.08032700;5.40923460;2023-09-19T01:01:54;18.30;93.10
6536;DHT22;34330;52.08032700;5.40923460;2023-09-19T01:04:23;18.30;93.20
6536;DHT22;34330;52.08032700;5.40923460;2023-09-19T01:06:53;18.30;93.20
6536;DHT22;34330;52.08032700;5.40923460;2023-09-19T01:09:21;18.30;93.30
6536;DHT22;34330;52.08032700;5.40923460;2023-09-19T01:11:53;18.30;93.40
6536;DHT22;34330;52.08032700;5.40923460;2023-09-19T01:14:34;18.30;93.60
6536;DHT22;34330;52.08032700;5.40923460;2023-09-19T01:17:14;18.30;93.60
6536;DHT22;34330;52.08032700;5.40923460;2023-09-19T01:20:16;18.30;93.60
6536;DHT22;34330;52.08032700;5.40923460;2023-09-19T01:22:53;18.30;93.70
6536;DHT22;34330;52.08032700;5.40923460;2023-09-19T01:25:42;18.30;93.50
6536;DHT22;34330;52.08032700;5.40923460;2023-09-19T01:28:30;18.30;94.00
6536;DHT22;34330;52.08032700;5.40923460;2023-09-19T01:31:09;18.40;93.70
6536;DHT22;34330;52.08032700;5.40923460;2023-09-19T01:33:56;18.60;93.80
6536;DHT22;34330;52.08032700;5.40923460;2023-09-19T01:36:30;18.40;93.80
6536;DHT22;34330;52.08032700;5.40923460;2023-09-19T01:39:00;18.40;93.70
6536;DHT22;34330;52.08032700;5.40923460;2023-09-19T01:41:51;18.40;93.70
6536;DHT22;34330;52.08032700;5.40923460;2023-09-19T01:44:26;18.40;93.90
6536;DHT22;34330;52.08032700;5.40923460;2023-09-19T01:47:03;18.40;93.60
6536;DHT22;34330;52.08032700;5.40923460;2023-09-19T01:49:37;18.40;93.60
6536;DHT22;34330;52.08032700;5.40923460;2023-09-19T01:52:11;18.40;93.60
6536;DHT22;34330;52.08032700;5.40923460;2023-09-19T01:54:48;18.40;93.40
6536;DHT22;34330;52.08032700;5.40923460;2023-09-19T01:57:25;18.40;93.40
6536;DHT22;34330;52.08032700;5.40923460;2023-09-19T02:00:01;18.30;93.40
6536;DHT22;34330;52.08032700;5.40923460;2023-09-19T02:02:36;18.30;93.40
6536;DHT22;34330;52.08032700;5.40923460;2023-09-19T02:05:05;18.50;93.50
6536;DHT22;34330;52.08032700;5.40923460;2023-09-19T02:07:34;18.30;93.30
6536;DHT22;34330;52.08032700;5.40923460;2023-09-19T02:10:05;18.30;93.30
6536;DHT22;34330;52.08032700;5.40923460;2023-09-19T02:12:33;18.30;93.20
6536;DHT22;34330;52.08032700;5.40923460;2023-09-19T02:15:03;18.10;93.00
6536;DHT22;34330;52.08032700;5.40923460;2023-09-19T02:17:35;18.20;93.10
6536;DHT22;34330;52.08032700;5.40923460;2023-09-19T02:20:05;18.20;93.00
6536;DHT22;34330;52.08032700;5.40923460;2023-09-19T02:22:41;18.20;92.90
6536;DHT22;34330;52.08032700;5.40923460;2023-09-19T02:25:09;18.20;92.90
6536;DHT22;34330;52.08032700;5.40923460;2023-09-19T02:27:38;18.20;92.80
6536;DHT22;34330;52.08032700;5.40923460;2023-09-19T02:30:07;18.10;92.70
6536;DHT22;34330;52.08032700;5.40923460;2023-09-19T02:32:36;18.10;92.60
6536;DHT22;34330;52.08032700;5.40923460;2023-09-19T02:35:07;18.10;92.70
6536;DHT22;34330;52.08032700;5.40923460;2023-09-19T02:37:37;18.10;92.60
6536;DHT22;34330;52.08032700;5.40923460;2023-09-19T02:40:06;18.00;92.60
6536;DHT22;34330;52.08032700;5.40923460;2023-09-19T02:42:46;18.00;92.90
6536;DHT22;34330;52.08032700;5.40923460;2023-09-19T02:45:17;18.00;92.50
6536;DHT22;34330;52.08032700;5.40923460;2023-09-19T02:47:47;17.90;92.40
6536;DHT22;34330;52.08032700;5.40923460;2023-09-19T02:50:16;17.90;92.30
6536;DHT22;34330;52.08032700;5.40923460;2023-09-19T02:52:45;17.90;92.20
6536;DHT22;34330;52.08032700;5.40923460;2023-09-19T02:55:14;17.80;92.20
6536;DHT22;34330;52.08032700;5.40923460;2023-09-19T02:57:46;17.80;92.10
6536;DHT22;34330;52.08032700;5.40923460;2023-09-19T03:00:14;17.80;92.10
6536;DHT22;34330;52.08032700;5.40923460;2023-09-19T03:02:42;17.70;91.90
6536;DHT22;34330;52.08032700;5.40923460;2023-09-19T03:05:14;17.80;91.90
6536;DHT22;34330;52.08032700;5.40923460;2023-09-19T03:07:42;17.60;91.90
6536;DHT22;34330;52.08032700;5.40923460;2023-09-19T03:10:13;17.60;91.80
6536;DHT22;34330;52.08032700;5.40923460;2023-09-19T03:12:43;17.50;91.80
6536;DHT22;34330;52.08032700;5.40923460;2023-09-19T03:15:11;17.50;91.70
6536;DHT22;34330;52.08032700;5.40923460;2023-09-19T03:17:42;17.40;91.60
6536;DHT22;34330;52.08032700;5.40923460;2023-09-19T03:20:13;17.40;91.60
6536;DHT22;34330;52.08032700;5.40923460;2023-09-19T03:22:44;17.30;91.60
6536;DHT22;34330;52.08032700;5.40923460;2023-09-19T03:25:12;17.30;91.50
6536;DHT22;34330;52.08032700;5.40923460;2023-09-19T03:27:41;17.20;91.50
6536;DHT22;34330;52.08032700;5.40923460;2023-09-19T03:30:09;17.20;91.40
6536;DHT22;34330;52.08032700;5.40923460;2023-09-19T03:32:44;17.20;91.40
6536;DHT22;34330;52.08032700;5.40923460;2023-09-19T03:35:15;17.10;91.20
6536;DHT22;34330;52.08032700;5.40923460;2023-09-19T03:37:43;17.10;91.30
6536;DHT22;34330;52.08032700;5.40923460;2023-09-19T03:40:12;17.10;91.30
6536;DHT22;34330;52.08032700;5.40923460;2023-09-19T03:42:41;17.10;91.30
6536;DHT22;34330;52.08032700;5.40923460;2023-09-19T03:45:10;17.00;91.30
6536;DHT22;34330;52.08032700;5.40923460;2023-09-19T03:47:40;17.00;91.30
6536;DHT22;34330;52.08032700;5.40923460;2023-09-19T03:50:09;16.90;91.20
6536;DHT22;34330;52.08032700;5.40923460;2023-09-19T03:52:39;16.90;91.10
6536;DHT22;34330;52.08032700;5.40923460;2023-09-19T03:55:08;16.90;91.10
6536;DHT22;34330;52.08032700;5.40923460;2023-09-19T03:57:36;16.80;91.00
6536;DHT22;34330;52.08032700;5.40923460;2023-09-19T04:00:05;16.80;91.00
6536;DHT22;34330;52.08032700;5.40923460;2023-09-19T04:02:38;16.80;90.90
6536;DHT22;34330;52.08032700;5.40923460;2023-09-19T04:05:07;16.80;90.90
6536;DHT22;34330;52.08032700;5.40923460;2023-09-19T04:07:36;17.80;91.40
6536;DHT22;34330;52.08032700;5.40923460;2023-09-19T04:10:06;16.70;91.20
6536;DHT22;34330;52.08032700;5.40923460;2023-09-19T04:12:37;16.60;91.10
6536;DHT22;34330;52.08032700;5.40923460;2023-09-19T04:15:06;16.60;90.90
6536;DHT22;34330;52.08032700;5.40923460;2023-09-19T04:17:34;16.60;90.80
6536;DHT22;34330;52.08032700;5.40923460;2023-09-19T04:20:03;16.60;90.70
6536;DHT22;34330;52.08032700;5.40923460;2023-09-19T04:22:33;16.60;90.70
6536;DHT22;34330;52.08032700;5.40923460;2023-09-19T04:25:02;16.60;90.90
6536;DHT22;34330;52.08032700;5.40923460;2023-09-19T04:27:31;16.60;90.50
6536;DHT22;34330;52.08032700;5.40923460;2023-09-19T04:29:59;16.60;90.60
6536;DHT22;34330;52.08032700;5.40923460;2023-09-19T04:32:36;16.50;90.50
6536;DHT22;34330;52.08032700;5.40923460;2023-09-19T04:35:07;16.50;90.50
6536;DHT22;34330;52.08032700;5.40923460;2023-09-19T04:37:37;16.50;90.10
6536;DHT22;34330;52.08032700;5.40923460;2023-09-19T04:40:08;16.50;90.50
6536;DHT22;34330;52.08032700;5.40923460;2023-09-19T04:42:41;16.50;91.00
6536;DHT22;34330;52.08032700;5.40923460;2023-09-19T04:45:10;16.40;90.80
6536;DHT22;34330;52.08032700;5.40923460;2023-09-19T04:47:38;16.50;90.80
6536;DHT22;34330;52.08032700;5.40923460;2023-09-19T04:50:08;16.50;90.80
6536;DHT22;34330;52.08032700;5.40923460;2023-09-19T04:52:40;16.40;90.70
6536;DHT22;34330;52.08032700;5.40923460;2023-09-19T04:55:11;16.40;90.60
6536;DHT22;34330;52.08032700;5.40923460;2023-09-19T04:57:45;16.50;90.70
6536;DHT22;34330;52.08032700;5.40923460;2023-09-19T05:00:14;16.50;90.70
6536;DHT22;34330;52.08032700;5.40923460;2023-09-19T05:02:43;16.40;90.70
6536;DHT22;34330;52.08032700;5.40923460;2023-09-19T05:05:12;16.50;90.60
6536;DHT22;34330;52.08032700;5.40923460;2023-09-19T05:07:42;16.60;90.80
6536;DHT22;34330;52.08032700;5.40923460;2023-09-19T05:10:10;16.40;90.60
6536;DHT22;34330;52.08032700;5.40923460;2023-09-19T05:12:39;16.40;90.60
6536;DHT22;34330;52.08032700;5.40923460;2023-09-19T05:15:09;16.40;90.60
6536;DHT22;34330;52.08032700;5.40923460;2023-09-19T05:17:37;16.70;90.60
6536;DHT22;34330;52.08032700;5.40923460;2023-09-19T05:20:06;16.40;90.60
6536;DHT22;34330;52.08032700;5.40923460;2023-09-19T05:22:57;16.40;90.60
6536;DHT22;34330;52.08032700;5.40923460;2023-09-19T05:25:28;16.40;90.60
6536;DHT22;34330;52.08032700;5.40923460;2023-09-19T05:27:57;16.40;90.60
6536;DHT22;34330;52.08032700;5.40923460;2023-09-19T05:30:27;16.40;90.60
6536;DHT22;34330;52.08032700;5.40923460;2023-09-19T05:32:56;15.90;90.40
6536;DHT22;34330;52.08032700;5.40923460;2023-09-19T05:35:25;16.40;90.80
6536;DHT22;34330;52.08032700;5.40923460;2023-09-19T05:37:54;16.40;90.80
6536;DHT22;34330;52.08032700;5.40923460;2023-09-19T05:40:22;16.40;90.90
6536;DHT22;34330;52.08032700;5.40923460;2023-09-19T05:42:51;16.40;90.90
6536;DHT22;34330;52.08032700;5.40923460;2023-09-19T05:45:19;16.40;90.90
6536;DHT22;34330;52.08032700;5.40923460;2023-09-19T05:47:51;16.40;90.90
6536;DHT22;34330;52.08032700;5.40923460;2023-09-19T05:50:23;16.40;91.00
6536;DHT22;34330;52.08032700;5.40923460;2023-09-19T05:52:53;16.40;91.00
6536;DHT22;34330;52.08032700;5.40923460;2023-09-19T05:55:23;16.40;91.10
6536;DHT22;34330;52.08032700;5.40923460;2023-09-19T05:57:52;16.40;91.00
6536;DHT22;34330;52.08032700;5.40923460;2023-09-19T06:00:20;16.40;91.10
6536;DHT22;34330;52.08032700;5.40923460;2023-09-19T06:02:52;16.40;91.10
6536;DHT22;34330;52.08032700;5.40923460;2023-09-19T06:05:21;16.50;91.10
6536;DHT22;34330;52.08032700;5.40923460;2023-09-19T06:07:49;16.50;91.20
6536;DHT22;34330;52.08032700;5.40923460;2023-09-19T06:10:19;16.50;91.10
6536;DHT22;34330;52.08032700;5.40923460;2023-09-19T06:12:47;16.50;91.20
6536;DHT22;34330;52.08032700;5.40923460;2023-09-19T06:15:16;16.50;91.30
6536;DHT22;34330;52.08032700;5.40923460;2023-09-19T06:17:47;16.50;91.30
6536;DHT22;34330;52.08032700;5.40923460;2023-09-19T06:20:17;16.50;91.30
6536;DHT22;34330;52.08032700;5.40923460;2023-09-19T06:22:47;16.50;91.40
6536;DHT22;34330;52.08032700;5.40923460;2023-09-19T06:25:15;16.60;91.40
6536;DHT22;34330;52.08032700;5.40923460;2023-09-19T06:27:47;16.60;91.50
6536;DHT22;34330;52.08032700;5.40923460;2023-09-19T06:30:15;16.80;91.60
6536;DHT22;34330;52.08032700;5.40923460;2023-09-19T06:32:44;16.60;91.60
6536;DHT22;34330;52.08032700;5.40923460;2023-09-19T06:35:14;16.60;91.50
6536;DHT22;34330;52.08032700;5.40923460;2023-09-19T06:37:43;16.70;91.70
6536;DHT22;34330;52.08032700;5.40923460;2023-09-19T06:40:13;16.70;91.70
6536;DHT22;34330;52.08032700;5.40923460;2023-09-19T06:42:41;16.80;91.70
6536;DHT22;34330;52.08032700;5.40923460;2023-09-19T06:45:11;16.80;91.80
6536;DHT22;34330;52.08032700;5.40923460;2023-09-19T06:47:40;16.90;91.80
6536;DHT22;34330;52.08032700;5.40923460;2023-09-19T06:50:08;16.90;91.90
6536;DHT22;34330;52.08032700;5.40923460;2023-09-19T06:52:40;16.90;91.90
6536;DHT22;34330;52.08032700;5.40923460;2023-09-19T06:55:10;16.90;92.00
6536;DHT22;34330;52.08032700;5.40923460;2023-09-19T06:57:40;17.00;92.00
6536;DHT22;34330;52.08032700;5.40923460;2023-09-19T07:00:11;17.10;92.10
6536;DHT22;34330;52.08032700;5.40923460;2023-09-19T07:02:45;17.10;92.10
6536;DHT22;34330;52.08032700;5.40923460;2023-09-19T07:05:13;17.10;92.10
6536;DHT22;34330;52.08032700;5.40923460;2023-09-19T07:07:41;17.10;92.20
6536;DHT22;34330;52.08032700;5.40923460;2023-09-19T07:10:11;17.40;92.20
6536;DHT22;34330;52.08032700;5.40923460;2023-09-19T07:12:40;17.20;92.10
6536;DHT22;34330;52.08032700;5.40923460;2023-09-19T07:15:10;17.30;92.10
6536;DHT22;34330;52.08032700;5.40923460;2023-09-19T07:17:38;17.30;92.10
6536;DHT22;34330;52.08032700;5.40923460;2023-09-19T07:20:07;17.30;92.10
6536;DHT22;34330;52.08032700;5.40923460;2023-09-19T07:22:35;17.40;92.10
6536;DHT22;34330;52.08032700;5.40923460;2023-09-19T07:25:06;17.50;92.10
6536;DHT22;34330;52.08032700;5.40923460;2023-09-19T07:27:36;17.50;92.20
6536;DHT22;34330;52.08032700;5.40923460;2023-09-19T07:30:06;17.60;92.20
6536;DHT22;34330;52.08032700;5.40923460;2023-09-19T07:32:35;17.60;92.20
6536;DHT22;34330;52.08032700;5.40923460;2023-09-19T07:35:05;17.60;92.10
6536;DHT22;34330;52.08032700;5.40923460;2023-09-19T07:37:35;17.70;92.10
6536;DHT22;34330;52.08032700;5.40923460;2023-09-19T07:40:04;17.80;92.00
6536;DHT22;34330;52.08032700;5.40923460;2023-09-19T07:42:34;17.80;92.00
6536;DHT22;34330;52.08032700;5.40923460;2023-09-19T07:45:06;18.10;92.30
6536;DHT22;34330;52.08032700;5.40923460;2023-09-19T07:47:34;17.90;91.90
6536;DHT22;34330;52.08032700;5.40923460;2023-09-19T07:50:03;17.90;91.80
6536;DHT22;34330;52.08032700;5.40923460;2023-09-19T07:52:34;18.00;91.90
6536;DHT22;34330;52.08032700;5.40923460;2023-09-19T07:55:02;18.00;91.90
6536;DHT22;34330;52.08032700;5.40923460;2023-09-19T07:57:35;18.10;92.00
6536;DHT22;34330;52.08032700;5.40923460;2023-09-19T08:00:06;18.20;91.90
6536;DHT22;34330;52.08032700;5.40923460;2023-09-19T08:02:34;18.20;91.90
6536;DHT22;34330;52.08032700;5.40923460;2023-09-19T08:05:05;18.20;91.80
6536;DHT22;34330;52.08032700;5.40923460;2023-09-19T08:10:06;18.40;92.00
6536;DHT22;34330;52.08032700;5.40923460;2023-09-19T08:12:40;18.40;91.90
6536;DHT22;34330;52.08032700;5.40923460;2023-09-19T08:15:15;18.50;92.00
6536;DHT22;34330;52.08032700;5.40923460;2023-09-19T08:17:43;18.50;91.90
6536;DHT22;34330;52.08032700;5.40923460;2023-09-19T08:20:12;18.70;91.80
6536;DHT22;34330;52.08032700;5.40923460;2023-09-19T08:22:44;18.70;91.70
6536;DHT22;34330;52.08032700;5.40923460;2023-09-19T08:25:14;18.80;91.70
6536;DHT22;34330;52.08032700;5.40923460;2023-09-19T08:27:45;18.90;91.60
6536;DHT22;34330;52.08032700;5.40923460;2023-09-19T08:30:16;18.90;91.50
6536;DHT22;34330;52.08032700;5.40923460;2023-09-19T08:32:46;19.00;91.60
6536;DHT22;34330;52.08032700;5.40923460;2023-09-19T08:35:17;19.10;91.50
6536;DHT22;34330;52.08032700;5.40923460;2023-09-19T08:37:46;19.10;91.50
6536;DHT22;34330;52.08032700;5.40923460;2023-09-19T08:40:15;19.20;91.50
6536;DHT22;34330;52.08032700;5.40923460;2023-09-19T08:42:49;19.20;91.30
6536;DHT22;34330;52.08032700;5.40923460;2023-09-19T08:45:19;19.30;91.20
6536;DHT22;34330;52.08032700;5.40923460;2023-09-19T08:47:56;17.40;90.30
6536;DHT22;34330;52.08032700;5.40923460;2023-09-19T08:50:28;19.40;90.90
6536;DHT22;34330;52.08032700;5.40923460;2023-09-19T08:53:01;19.50;90.90
6536;DHT22;34330;52.08032700;5.40923460;2023-09-19T08:55:31;19.50;91.10
6536;DHT22;34330;52.08032700;5.40923460;2023-09-19T08:58:02;19.50;90.90
6536;DHT22;34330;52.08032700;5.40923460;2023-09-19T09:00:33;19.60;90.80
6536;DHT22;34330;52.08032700;5.40923460;2023-09-19T09:03:03;19.60;91.20
6536;DHT22;34330;52.08032700;5.40923460;2023-09-19T09:05:35;19.60;90.80
6536;DHT22;34330;52.08032700;5.40923460;2023-09-19T09:08:05;19.70;90.60
6536;DHT22;34330;52.08032700;5.40923460;2023-09-19T09:10:34;19.70;90.40
6536;DHT22;34330;52.08032700;5.40923460;2023-09-19T09:13:02;19.80;90.40
6536;DHT22;34330;52.08032700;5.40923460;2023-09-19T09:15:36;19.80;90.10
6536;DHT22;34330;52.08032700;5.40923460;2023-09-19T09:18:05;20.00;90.10
6536;DHT22;34330;52.08032700;5.40923460;2023-09-19T09:20:33;19.90;89.90
6536;DHT22;34330;52.08032700;5.40923460;2023-09-19T09:23:01;19.90;89.90
6536;DHT22;34330;52.08032700;5.40923460;2023-09-19T09:25:49;20.00;90.00
6536;DHT22;34330;52.08032700;5.40923460;2023-09-19T09:28:22;20.60;90.10
6536;DHT22;34330;52.08032700;5.40923460;2023-09-19T09:30:52;20.20;89.70
6536;DHT22;34330;52.08032700;5.40923460;2023-09-19T09:33:21;20.20;89.30
6536;DHT22;34330;52.08032700;5.40923460;2023-09-19T09:35:51;20.20;89.00
6536;DHT22;34330;52.08032700;5.40923460;2023-09-19T09:38:21;20.30;89.30
6536;DHT22;34330;52.08032700;5.40923460;2023-09-19T09:40:53;20.40;89.50
6536;DHT22;34330;52.08032700;5.40923460;2023-09-19T09:43:28;20.50;89.10
6536;DHT22;34330;52.08032700;5.40923460;2023-09-19T09:46:12;20.50;89.20
6536;DHT22;34330;52.08032700;5.40923460;2023-09-19T09:48:59;20.60;88.30
6536;DHT22;34330;52.08032700;5.40923460;2023-09-19T09:51:43;20.70;88.20
6536;DHT22;34330;52.08032700;5.40923460;2023-09-19T09:54:15;20.80;88.20
6536;DHT22;34330;52.08032700;5.40923460;2023-09-19T09:56:54;20.90;87.70
6536;DHT22;34330;52.08032700;5.40923460;2023-09-19T09:59:47;20.90;87.10
6536;DHT22;34330;52.08032700;5.40923460;2023-09-19T10:02:18;21.00;87.10
6536;DHT22;34330;52.08032700;5.40923460;2023-09-19T10:04:52;21.10;87.20
6536;DHT22;34330;52.08032700;5.40923460;2023-09-19T10:07:27;21.10;86.80
6536;DHT22;34330;52.08032700;5.40923460;2023-09-19T10:10:00;21.20;86.80
6536;DHT22;34330;52.08032700;5.40923460;2023-09-19T10:12:43;21.20;86.90
6536;DHT22;34330;52.08032700;5.40923460;2023-09-19T10:15:12;21.30;86.30
6536;DHT22;34330;52.08032700;5.40923460;2023-09-19T10:17:44;21.30;85.90
6536;DHT22;34330;52.08032700;5.40923460;2023-09-19T10:20:14;21.30;85.00
6536;DHT22;34330;52.08032700;5.40923460;2023-09-19T10:23:06;21.40;84.60
6536;DHT22;34330;52.08032700;5.40923460;2023-09-19T10:25:40;21.40;84.20
6536;DHT22;34330;52.08032700;5.40923460;2023-09-19T10:28:11;21.40;84.70
6536;DHT22;34330;52.08032700;5.40923460;2023-09-19T10:30:42;21.30;84.00
6536;DHT22;34330;52.08032700;5.40923460;2023-09-19T10:33:15;21.30;84.00
6536;DHT22;34330;52.08032700;5.40923460;2023-09-19T10:35:44;21.30;84.20
6536;DHT22;34330;52.08032700;5.40923460;2023-09-19T10:38:14;21.30;83.50
6536;DHT22;34330;52.08032700;5.40923460;2023-09-19T10:40:49;21.30;83.90
6536;DHT22;34330;52.08032700;5.40923460;2023-09-19T10:43:19;21.30;84.60
6536;DHT22;34330;52.08032700;5.40923460;2023-09-19T10:45:49;21.40;84.70
6536;DHT22;34330;52.08032700;5.40923460;2023-09-19T10:48:21;21.40;84.20
6536;DHT22;34330;52.08032700;5.40923460;2023-09-19T10:51:06;21.50;83.90
6536;DHT22;34330;52.08032700;5.40923460;2023-09-19T10:53:46;21.60;84.20
6536;DHT22;34330;52.08032700;5.40923460;2023-09-19T10:56:21;21.70;83.30
6536;DHT22;34330;52.08032700;5.40923460;2023-09-19T10:58:51;21.70;83.60
6536;DHT22;34330;52.08032700;5.40923460;2023-09-19T11:01:20;21.70;83.40
6536;DHT22;34330;52.08032700;5.40923460;2023-09-19T11:04:26;21.70;82.80
6536;DHT22;34330;52.08032700;5.40923460;2023-09-19T11:07:02;21.70;82.60
6536;DHT22;34330;52.08032700;5.40923460;2023-09-19T11:09:47;21.80;82.30
6536;DHT22;34330;52.08032700;5.40923460;2023-09-19T11:12:49;21.80;82.80
6536;DHT22;34330;52.08032700;5.40923460;2023-09-19T11:18:58;21.90;81.80
6536;DHT22;34330;52.08032700;5.40923460;2023-09-19T11:21:56;22.00;81.10
6536;DHT22;34330;52.08032700;5.40923460;2023-09-19T11:24:28;22.00;80.70
6536;DHT22;34330;52.08032700;5.40923460;2023-09-19T11:27:15;22.10;81.40
6536;DHT22;34330;52.08032700;5.40923460;2023-09-19T11:29:45;22.10;81.20
6536;DHT22;34330;52.08032700;5.40923460;2023-09-19T11:32:14;22.10;81.70
6536;DHT22;34330;52.08032700;5.40923460;2023-09-19T11:34:48;22.20;81.40
6536;DHT22;34330;52.08032700;5.40923460;2023-09-19T11:40:37;22.30;79.70
6536;DHT22;34330;52.08032700;5.40923460;2023-09-19T11:43:30;22.40;79.60
6536;DHT22;34330;52.08032700;5.40923460;2023-09-19T11:46:07;22.40;79.30
6536;DHT22;34330;52.08032700;5.40923460;2023-09-19T11:48:36;21.90;78.00
6536;DHT22;34330;52.08032700;5.40923460;2023-09-19T11:51:16;22.40;79.50
6536;DHT22;34330;52.08032700;5.40923460;2023-09-19T11:53:50;22.40;79.00
6536;DHT22;34330;52.08032700;5.40923460;2023-09-19T11:56:21;22.40;78.80
6536;DHT22;34330;52.08032700;5.40923460;2023-09-19T11:58:51;22.40;78.10
6536;DHT22;34330;52.08032700;5.40923460;2023-09-19T12:01:25;22.50;78.30
6536;DHT22;34330;52.08032700;5.40923460;2023-09-19T12:03:57;22.50;78.30
6536;DHT22;34330;52.08032700;5.40923460;2023-09-19T12:06:27;22.50;78.40
6536;DHT22;34330;52.08032700;5.40923460;2023-09-19T12:08:56;22.50;78.30
6536;DHT22;34330;52.08032700;5.40923460;2023-09-19T12:11:30;22.60;77.30
6536;DHT22;34330;52.08032700;5.40923460;2023-09-19T12:14:01;22.60;76.90
6536;DHT22;34330;52.08032700;5.40923460;2023-09-19T12:16:31;22.60;77.30
6536;DHT22;34330;52.08032700;5.40923460;2023-09-19T12:19:17;22.60;77.20
6536;DHT22;34330;52.08032700;5.40923460;2023-09-19T12:21:54;22.50;76.00
6536;DHT22;34330;52.08032700;5.40923460;2023-09-19T12:24:25;22.50;75.90
6536;DHT22;34330;52.08032700;5.40923460;2023-09-19T12:27:02;22.50;76.90
6536;DHT22;34330;52.08032700;5.40923460;2023-09-19T12:29:32;22.50;76.70
6536;DHT22;34330;52.08032700;5.40923460;2023-09-19T12:32:09;22.60;76.90
6536;DHT22;34330;52.08032700;5.40923460;2023-09-19T12:34:37;22.50;76.90
6536;DHT22;34330;52.08032700;5.40923460;2023-09-19T12:37:11;22.50;76.90
6536;DHT22;34330;52.08032700;5.40923460;2023-09-19T12:39:40;22.50;76.30
6536;DHT22;34330;52.08032700;5.40923460;2023-09-19T12:42:11;22.50;76.70
6536;DHT22;34330;52.08032700;5.40923460;2023-09-19T12:44:42;22.50;76.60
6536;DHT22;34330;52.08032700;5.40923460;2023-09-19T12:47:16;22.50;76.40
6536;DHT22;34330;52.08032700;5.40923460;2023-09-19T12:50:09;22.40;75.60
6536;DHT22;34330;52.08032700;5.40923460;2023-09-19T12:52:43;22.40;76.40
6536;DHT22;34330;52.08032700;5.40923460;2023-09-19T12:55:22;22.40;76.70
6536;DHT22;34330;52.08032700;5.40923460;2023-09-19T12:58:00;22.30;76.30
6536;DHT22;34330;52.08032700;5.40923460;2023-09-19T13:00:33;22.30;76.20
6536;DHT22;34330;52.08032700;5.40923460;2023-09-19T13:03:16;22.30;77.00
6536;DHT22;34330;52.08032700;5.40923460;2023-09-19T13:05:50;22.30;76.30
6536;DHT22;34330;52.08032700;5.40923460;2023-09-19T13:08:23;22.30;77.10
6536;DHT22;34330;52.08032700;5.40923460;2023-09-19T13:11:10;22.20;77.20
6536;DHT22;34330;52.08032700;5.40923460;2023-09-19T13:13:42;22.30;76.90
6536;DHT22;34330;52.08032700;5.40923460;2023-09-19T13:16:17;22.30;77.10
6536;DHT22;34330;52.08032700;5.40923460;2023-09-19T13:18:50;22.30;77.70
6536;DHT22;34330;52.08032700;5.40923460;2023-09-19T13:21:28;22.30;77.70
6536;DHT22;34330;52.08032700;5.40923460;2023-09-19T13:24:17;22.30;77.40
6536;DHT22;34330;52.08032700;5.40923460;2023-09-19T13:26:46;22.30;77.20
6536;DHT22;34330;52.08032700;5.40923460;2023-09-19T13:29:15;22.30;77.40
6536;DHT22;34330;52.08032700;5.40923460;2023-09-19T13:31:49;22.30;77.70
6536;DHT22;34330;52.08032700;5.40923460;2023-09-19T13:34:20;22.30;77.40
6536;DHT22;34330;52.08032700;5.40923460;2023-09-19T13:36:48;22.30;77.90
6536;DHT22;34330;52.08032700;5.40923460;2023-09-19T13:39:17;22.30;78.50
6536;DHT22;34330;52.08032700;5.40923460;2023-09-19T13:41:45;22.30;78.10
6536;DHT22;34330;52.08032700;5.40923460;2023-09-19T13:44:16;22.40;78.10
6536;DHT22;34330;52.08032700;5.40923460;2023-09-19T13:46:44;22.30;78.10
6536;DHT22;34330;52.08032700;5.40923460;2023-09-19T13:49:14;22.40;78.10
6536;DHT22;34330;52.08032700;5.40923460;2023-09-19T13:51:42;22.40;78.80
6536;DHT22;34330;52.08032700;5.40923460;2023-09-19T13:54:11;22.40;78.10
6536;DHT22;34330;52.08032700;5.40923460;2023-09-19T13:56:41;22.50;78.10
6536;DHT22;34330;52.08032700;5.40923460;2023-09-19T13:59:09;22.60;78.10
6536;DHT22;34330;52.08032700;5.40923460;2023-09-19T14:01:38;22.60;77.70
6536;DHT22;34330;52.08032700;5.40923460;2023-09-19T14:04:06;22.60;77.00
6536;DHT22;34330;52.08032700;5.40923460;2023-09-19T14:06:34;22.60;77.20
6536;DHT22;34330;52.08032700;5.40923460;2023-09-19T14:09:04;22.60;77.20
6536;DHT22;34330;52.08032700;5.40923460;2023-09-19T14:11:32;22.60;77.50